Time;durP1;ratioP1;P1;durP2;ratioP2;P2;SDS_P1;SDS_P2;PMS_P1;PMS_P2;Temp;Humidity;BMP_temperature;BMP_pressure;BME280_temperature;BME280_humidity;BME280_pressure;Samples;Min_cycle;Max_cycle;Signal;HPM_P1;HPM_P2
2022/09/24 00:00:07;;;;;;;5.87;4.75;;;;;;;9.07;75.11;100474.00;1860803;76;20820;-87
2022/09/24 00:02:34;;;;;;;7.78;5.28;;;;;;;9.06;75.18;100474.08;1860758;76;21380;-87
2022/09/24 00:05:01;;;;;;;6.47;5.05;;;;;;;9.05;75.18;100472.41;1860921;77;20911;-87
2022/09/24 00:07:27;;;;;;;6.58;5.00;;;;;;;9.01;75.14;100472.19;1861088;77;20946;-86
2022/09/24 00:09:54;;;;;;;5.28;4.20;;;;;;;8.97;75.19;100471.51;1861037;76;21118;-88
2022/09/24 00:12:21;;;;;;;5.47;4.45;;;;;;;8.93;75.26;100469.98;1860759;77;20923;-87
2022/09/24 00:14:48;;;;;;;6.65;4.40;;;;;;;8.89;75.35;100473.70;1860864;77;20911;-87
2022/09/24 00:17:15;;;;;;;6.20;4.78;;;;;;;8.85;75.47;100469.12;1860914;77;20955;-88
2022/09/24 00:19:43;;;;;;;5.55;3.85;;;;;;;8.81;75.60;100468.91;1860896;77;20977;-88
2022/09/24 00:22:09;;;;;;;4.40;3.75;;;;;;;8.81;75.75;100464.14;1860765;76;21152;-87
2022/09/24 00:27:22;;;;;;;6.50;3.72;;;;;;;8.75;75.93;100471.01;1812203;77;20898;-88
2022/09/24 00:29:49;;;;;;;4.25;3.50;;;;;;;8.71;76.05;100462.04;1860832;77;21496;-88
2022/09/24 00:32:16;;;;;;;4.30;3.90;;;;;;;8.69;76.20;100461.28;1861113;76;20939;-88
2022/09/24 00:34:43;;;;;;;3.92;3.40;;;;;;;8.68;76.34;100458.73;1860771;77;21859;-87
2022/09/24 00:37:10;;;;;;;6.67;4.00;;;;;;;8.65;76.44;100459.75;1860685;76;20907;-87
2022/09/24 00:39:38;;;;;;;3.77;3.35;;;;;;;8.63;76.58;100462.08;1860865;76;20931;-87
2022/09/24 00:42:05;;;;;;;3.65;3.25;;;;;;;8.59;76.69;100465.31;1860718;77;20935;-88
2022/09/24 00:44:46;;;;;;;5.33;3.37;;;;;;;8.56;76.87;100465.48;1861272;77;20860;-86
2022/09/24 00:47:34;;;;;;;4.22;3.08;;;;;;;8.53;77.03;100463.02;1860831;77;21987;-88
2022/09/24 00:50:15;;;;;;;4.37;3.52;;;;;;;8.51;77.25;100457.03;1860726;77;20950;-87
2022/09/24 00:52:47;;;;;;;4.33;3.77;;;;;;;8.48;77.43;100452.81;1838335;75;20831;-87
2022/09/24 00:55:14;;;;;;;5.58;3.75;;;;;;;8.48;77.63;100457.20;1835859;76;20879;-87
2022/09/24 00:57:42;;;;;;;5.78;3.80;;;;;;;8.48;77.77;100459.81;1834927;77;20827;-87
2022/09/24 01:00:10;;;;;;;5.40;3.87;;;;;;;8.48;77.94;100458.05;1835669;77;22040;-87
2022/09/24 01:02:38;;;;;;;5.00;3.77;;;;;;;8.48;78.03;100454.13;1837798;77;20981;-86
2022/09/24 01:05:07;;;;;;;7.15;4.85;;;;;;;8.49;78.12;100448.42;1837738;77;20891;-87
2022/09/24 01:07:34;;;;;;;4.87;3.80;;;;;;;8.50;78.11;100450.97;1835264;78;20827;-86
2022/09/24 01:10:01;;;;;;;5.08;3.65;;;;;;;8.50;78.08;100454.05;1836229;77;21427;-86
2022/09/24 01:12:51;;;;;;;4.17;3.65;;;;;;;8.49;78.06;100445.81;1836083;77;21246;-86
2022/09/24 01:15:34;;;;;;;3.72;3.33;;;;;;;8.48;78.04;100445.45;1835553;77;20856;-86
2022/09/24 01:18:12;;;;;;;5.87;3.92;;;;;;;8.46;78.08;100444.21;1834937;76;20891;-86
2022/09/24 01:21:02;;;;;;;5.53;3.95;;;;;;;8.42;78.01;100449.69;1836410;77;20946;-85
2022/09/24 01:24:03;;;;;;;6.72;4.03;;;;;;;8.36;78.01;100449.98;1837007;77;20911;-85
2022/09/24 01:27:10;;;;;;;5.28;3.92;;;;;;;8.30;78.14;100449.86;1836435;76;21432;-85
2022/09/24 01:30:05;;;;;;;8.23;4.92;;;;;;;8.24;78.35;100445.79;1776727;80;20891;-85
2022/09/24 01:32:48;;;;;;;4.97;4.20;;;;;;;8.21;78.56;100443.35;1795846;79;20923;-87
2022/09/24 01:35:35;;;;;;;5.92;3.70;;;;;;;8.19;78.69;100443.06;1796244;80;20935;-87
2022/09/24 01:38:17;;;;;;;4.10;3.50;;;;;;;8.18;78.79;100437.44;1795373;79;20899;-86
2022/09/24 01:40:44;;;;;;;3.45;3.15;;;;;;;8.17;78.86;100441.82;1795629;78;21736;-87
2022/09/24 01:43:11;;;;;;;4.30;3.60;;;;;;;8.16;78.79;100440.15;1795187;79;20943;-87
2022/09/24 01:45:38;;;;;;;4.50;2.98;;;;;;;8.14;78.73;100440.69;1795326;78;21006;-87
2022/09/24 01:48:05;;;;;;;4.97;3.35;;;;;;;8.12;78.79;100438.62;1795178;79;20880;-87
2022/09/24 01:50:46;;;;;;;3.83;3.27;;;;;;;8.13;78.86;100439.45;1795475;78;20943;-88
2022/09/24 01:53:34;;;;;;;3.98;3.27;;;;;;;8.12;78.91;100433.87;1750594;80;22199;-86
2022/09/24 01:56:18;;;;;;;5.55;3.12;;;;;;;8.11;78.96;100438.22;1789423;80;20946;-86
2022/09/24 01:58:50;;;;;;;5.15;2.95;;;;;;;8.08;79.01;100436.63;1789978;80;20878;-86
2022/09/24 02:01:35;;;;;;;3.52;2.60;;;;;;;8.07;79.02;100433.64;1789435;80;20954;-87
2022/09/24 02:04:07;;;;;;;3.65;3.08;;;;;;;8.05;79.05;100434.65;1786605;80;20855;-87
2022/09/24 02:06:39;;;;;;;3.75;3.15;;;;;;;8.03;79.25;100429.97;1809936;78;21146;-86
2022/09/24 02:09:35;;;;;;;3.45;3.10;;;;;;;8.02;79.38;100431.71;1826865;78;20976;-89
2022/09/24 02:12:06;;;;;;;;;;;;;;;8.01;79.52;100431.34;1829307;78;20869;-87
2022/09/24 02:14:38;;;;;;;2.87;2.45;;;;;;;7.99;79.62;100433.19;1826535;78;20382;-87
2022/09/24 02:17:05;;;;;;;5.17;2.77;;;;;;;7.94;79.70;100436.52;1827001;78;20900;-88
2022/09/24 02:19:32;;;;;;;6.20;3.08;;;;;;;7.91;79.78;100434.04;1829538;78;21236;-88
2022/09/24 02:21:58;;;;;;;3.47;3.10;;;;;;;7.88;79.85;100434.20;1776658;78;20916;-88
2022/09/24 02:24:33;;;;;;;3.62;2.87;;;;;;;7.85;79.86;100432.61;1827149;78;20979;-87
2022/09/24 02:27:00;;;;;;;6.95;4.35;;;;;;;7.82;79.90;100433.22;1826780;78;20881;-87
2022/09/24 02:29:27;;;;;;;6.30;3.17;;;;;;;7.78;79.98;100429.07;1826861;78;20959;-86
2022/09/24 02:31:54;;;;;;;7.50;4.72;;;;;;;7.77;80.08;100431.31;1826624;78;21183;-87
2022/09/24 02:34:32;;;;;;;6.03;3.85;;;;;;;7.74;80.14;100429.70;1792618;78;20979;-86
2022/09/24 02:37:10;;;;;;;9.55;4.58;;;;;;;7.73;80.22;100429.30;1786861;80;20943;-86
2022/09/24 02:39:37;;;;;;;10.48;4.45;;;;;;;7.73;80.39;100425.86;1787739;80;20955;-86
2022/09/24 02:42:04;;;;;;;26.12;7.95;;;;;;;7.72;80.48;100427.63;1758320;81;21421;-87
2022/09/24 02:44:33;;;;;;;30.23;10.72;;;;;;;7.70;80.65;100426.87;1787767;80;21224;-87
2022/09/24 02:46:59;;;;;;;50.80;18.85;;;;;;;7.69;80.71;100436.91;1787667;79;21428;-86
2022/09/24 02:49:26;;;;;;;23.70;9.75;;;;;;;7.65;80.68;100431.02;1787807;80;20911;-87
2022/09/24 02:51:53;;;;;;;50.05;19.62;;;;;;;7.64;80.80;100436.30;1796929;79;20905;-87
2022/09/24 02:54:20;;;;;;;51.05;22.13;;;;;;;7.62;80.92;100433.77;1801373;79;20934;-88
2022/09/24 02:56:47;;;;;;;26.85;13.22;;;;;;;7.59;81.00;100435.23;1801390;79;21217;-87
2022/09/24 02:59:14;;;;;;;31.82;15.28;;;;;;;7.57;81.10;100438.84;1801477;79;20914;-87
2022/09/24 03:01:40;;;;;;;17.48;10.20;;;;;;;7.56;81.24;100446.28;1801504;78;20931;-87
2022/09/24 03:04:07;;;;;;;37.35;16.77;;;;;;;7.53;81.34;100447.75;1801323;79;20982;-87
2022/09/24 03:06:34;;;;;;;54.77;24.12;;;;;;;7.52;81.42;100446.08;1801540;79;20932;-87
2022/09/24 03:09:02;;;;;;;58.42;25.85;;;;;;;7.51;81.58;100443.06;1801434;79;21530;-88
2022/09/24 03:11:30;;;;;;;15.15;9.33;;;;;;;7.50;81.72;100446.14;1801483;79;20895;-87
2022/09/24 03:13:58;;;;;;;7.55;4.12;;;;;;;7.50;81.82;100448.75;1801570;79;20966;-85
2022/09/24 03:16:25;;;;;;;4.42;4.03;;;;;;;7.51;81.93;100450.42;1803340;78;20886;-86
2022/09/24 03:18:52;;;;;;;6.40;4.58;;;;;;;7.52;82.01;100448.69;1803487;79;21065;-88
2022/09/24 03:21:21;;;;;;;5.53;4.15;;;;;;;7.53;82.05;100458.19;1803491;79;21255;-88
2022/09/24 03:23:47;;;;;;;4.12;3.45;;;;;;;7.52;82.06;100454.73;1803405;78;20966;-88
2022/09/24 03:26:16;;;;;;;3.90;3.50;;;;;;;7.53;82.09;100455.11;1803638;79;20954;-89
2022/09/24 03:28:49;;;;;;;6.33;4.30;;;;;;;7.54;82.04;100454.20;1803923;79;20930;-88
2022/09/24 03:31:15;;;;;;;8.70;6.42;;;;;;;7.55;81.99;100453.27;1803399;79;20981;-88
2022/09/24 03:33:46;;;;;;;5.92;4.40;;;;;;;7.54;82.00;100454.67;1803483;78;21944;-88
2022/09/24 03:36:24;;;;;;;5.95;4.65;;;;;;;7.52;82.02;100459.95;1804941;79;20927;-87
2022/09/24 03:38:55;;;;;;;3.45;3.15;;;;;;;7.51;82.12;100451.73;1806741;77;20958;-86
2022/09/24 03:41:25;;;;;;;3.67;3.37;;;;;;;7.51;82.14;100460.02;1804514;79;20915;-87
2022/09/24 03:43:52;;;;;;;4.37;3.35;;;;;;;7.50;82.18;100459.66;1804072;78;20931;-86
2022/09/24 03:46:19;;;;;;;3.62;3.10;;;;;;;7.49;82.22;100452.27;1803555;78;21385;-86
2022/09/24 03:48:46;;;;;;;3.62;2.98;;;;;;;7.50;82.19;100456.58;1803506;78;20879;-85
2022/09/24 03:51:18;;;;;;;5.15;3.20;;;;;;;7.48;82.08;100460.56;1817733;78;20881;-85
2022/09/24 03:53:46;;;;;;;4.03;3.37;;;;;;;7.48;81.97;100459.25;1819204;77;20859;-86
2022/09/24 03:56:13;;;;;;;3.83;3.25;;;;;;;7.45;81.88;100458.11;1790908;80;20835;-87
2022/09/24 03:58:40;;;;;;;5.42;3.40;;;;;;;7.45;81.83;100454.67;1819464;78;21710;-86
2022/09/24 04:01:08;;;;;;;4.28;3.72;;;;;;;7.46;81.81;100453.73;1819378;79;20876;-87
2022/09/24 04:03:35;;;;;;;6.62;3.77;;;;;;;7.47;81.79;100460.66;1819345;79;20926;-86
2022/09/24 04:06:03;;;;;;;4.12;3.12;;;;;;;7.50;81.79;100455.74;1819163;79;21571;-87
2022/09/24 04:08:30;;;;;;;7.00;3.42;;;;;;;7.52;81.75;100447.37;1819401;79;20923;-87
2022/09/24 04:10:57;;;;;;;4.90;3.70;;;;;;;7.53;81.79;100450.36;1819395;78;21848;-87
2022/09/24 04:19:38;;;;;;;6.62;4.03;;;;;;;7.60;81.95;100450.42;1745185;79;20943;-87
2022/09/24 04:22:06;;;;;;;5.22;4.72;;;;;;;7.63;82.04;100448.98;1735640;82;21016;-88
2022/09/24 04:24:33;;;;;;;5.70;3.58;;;;;;;7.64;82.16;100448.89;1735714;82;22181;-89
2022/09/24 04:26:59;;;;;;;5.17;4.50;;;;;;;7.65;82.30;100447.98;1735506;82;21021;-88
2022/09/24 04:29:26;;;;;;;5.42;4.92;;;;;;;7.69;82.45;100446.05;1735527;82;20901;-88
2022/09/24 04:31:52;;;;;;;5.25;4.67;;;;;;;7.71;82.50;100453.34;1783026;80;20938;-89
2022/09/24 04:34:20;;;;;;;7.92;4.72;;;;;;;7.76;82.60;100452.66;1783329;80;20904;-87
2022/09/24 04:36:46;;;;;;;5.35;4.28;;;;;;;7.80;82.71;100459.42;1730885;83;21242;-88
2022/09/24 04:39:14;;;;;;;4.80;4.35;;;;;;;7.88;82.86;100468.98;1750800;82;20902;-88
2022/09/24 04:41:42;;;;;;;4.97;3.95;;;;;;;7.98;83.03;100468.08;1738344;82;20843;-87
2022/09/24 04:44:10;;;;;;;5.97;4.30;;;;;;;8.13;82.93;100473.41;1738685;80;21028;-88
2022/09/24 04:46:39;;;;;;;5.28;4.78;;;;;;;8.33;82.82;100467.13;1737018;82;20976;-89
2022/09/24 04:49:06;;;;;;;4.72;4.22;;;;;;;8.77;83.38;100466.07;1735867;82;21175;-89
2022/09/24 04:51:35;;;;;;;4.10;3.75;;;;;;;9.46;82.68;100470.50;1735772;82;20898;-89
2022/09/24 04:54:03;;;;;;;4.05;3.40;;;;;;;10.09;80.79;100479.88;1735949;82;21406;-89
2022/09/24 04:56:30;;;;;;;4.37;3.90;;;;;;;10.49;78.44;100477.48;1735996;82;20929;-89
2022/09/24 04:58:57;;;;;;;5.45;3.52;;;;;;;10.68;76.52;100487.20;1783437;80;20986;-88
2022/09/24 05:01:24;;;;;;;3.35;3.05;;;;;;;10.75;75.28;100491.11;1783672;80;21714;-89
2022/09/24 05:03:52;;;;;;;3.75;3.42;;;;;;;10.76;74.51;100482.33;1730866;83;20950;-89
2022/09/24 05:06:19;;;;;;;2.77;2.58;;;;;;;10.79;74.02;100489.98;1730696;83;20875;-89
2022/09/24 05:08:48;;;;;;;3.52;3.22;;;;;;;10.87;73.85;100486.03;1730534;83;20886;-88
2022/09/24 05:11:15;;;;;;;4.50;3.42;;;;;;;11.04;73.55;100492.84;1730852;83;20866;-87
2022/09/24 05:13:41;;;;;;;5.92;3.08;;;;;;;11.20;72.96;100490.91;1730991;83;21156;-88
2022/09/24 05:16:08;;;;;;;8.88;3.30;;;;;;;11.26;72.23;100488.37;1730595;83;20970;-88
2022/09/24 05:18:35;;;;;;;4.30;3.83;;;;;;;11.25;71.63;100486.66;1723805;82;20942;-90
2022/09/24 05:21:04;;;;;;;4.03;3.65;;;;;;;11.27;71.33;100488.72;1708175;84;20899;-89
2022/09/24 05:23:31;;;;;;;3.70;3.40;;;;;;;11.53;71.61;100484.39;1708179;84;20847;-88
2022/09/24 05:28:43;;;;;;;3.17;2.87;;;;;;;11.91;69.59;100489.73;1708260;84;20903;-87
2022/09/24 05:31:09;;;;;;;6.53;3.70;;;;;;;11.88;69.12;100495.21;1708320;84;20962;-88
2022/09/24 05:33:36;;;;;;;3.72;2.92;;;;;;;11.86;69.20;100490.50;1708023;84;20859;-87
2022/09/24 05:36:03;;;;;;;6.87;4.00;;;;;;;11.99;69.38;100494.01;1707988;84;20855;-87
2022/09/24 05:38:31;;;;;;;3.35;3.05;;;;;;;12.33;69.42;100491.69;1708384;84;21254;-89
2022/09/24 05:41:00;;;;;;;4.10;3.70;;;;;;;12.91;68.60;100487.20;1708254;84;20942;-87
2022/09/24 05:43:27;;;;;;;4.72;4.28;;;;;;;13.56;67.04;100484.67;1708046;84;21009;-89
2022/09/24 05:45:53;;;;;;;4.83;3.83;;;;;;;13.96;65.15;100485.61;1708040;84;20859;-88
2022/09/24 05:48:21;;;;;;;3.55;3.25;;;;;;;14.16;63.71;100486.27;1707188;84;20899;-89
2022/09/24 05:50:54;;;;;;;4.15;3.75;;;;;;;14.40;63.16;100491.89;1707817;84;21151;-86
2022/09/24 05:53:23;;;;;;;5.15;4.12;;;;;;;14.68;62.46;100494.08;1708243;83;20995;-88
2022/09/24 05:55:50;;;;;;;3.95;3.25;;;;;;;14.87;61.72;100496.10;1708622;84;20974;-87
2022/09/24 05:58:20;;;;;;;5.20;3.55;;;;;;;14.86;60.54;100503.65;1708958;84;20919;-88
2022/09/24 06:00:49;;;;;;;4.67;3.27;;;;;;;14.68;60.52;100499.35;1711295;84;21005;-88
2022/09/24 06:03:17;;;;;;;6.62;3.27;;;;;;;14.48;60.59;100497.42;1709855;84;22151;-87
2022/09/24 06:05:47;;;;;;;5.03;3.92;;;;;;;14.28;61.07;100506.89;1708722;84;20938;-88
2022/09/24 06:08:18;;;;;;;4.83;3.80;;;;;;;14.05;61.62;100506.86;1708354;84;20895;-88
2022/09/24 06:10:46;;;;;;;4.60;3.60;;;;;;;13.60;62.68;100508.03;1708123;84;20863;-88
2022/09/24 06:13:18;;;;;;;4.10;3.33;;;;;;;13.41;63.38;100505.94;1708043;84;20939;-89
2022/09/24 06:15:47;;;;;;;7.05;3.10;;;;;;;13.41;63.38;100505.94;1708008;84;21180;-89
2022/09/24 06:18:14;;;;;;;3.70;2.87;;;;;;;13.24;63.65;100508.94;1709823;82;21003;-87
2022/09/24 06:20:41;;;;;;;3.22;2.92;;;;;;;13.04;64.06;100505.95;1734788;82;20927;-87
2022/09/24 06:23:07;;;;;;;3.55;2.75;;;;;;;12.89;64.62;100513.62;1734690;82;20899;-88
2022/09/24 06:25:34;;;;;;;3.40;2.90;;;;;;;12.78;65.03;100515.73;1734600;81;21038;-87
2022/09/24 06:28:03;;;;;;;3.55;2.98;;;;;;;12.65;65.49;100515.75;1734558;82;21384;-88
2022/09/24 06:30:37;;;;;;;6.83;3.83;;;;;;;12.55;65.84;100519.13;1734413;82;21007;-88
2022/09/24 06:33:05;;;;;;;;;;;;;;;12.42;66.42;100518.66;1737198;82;20947;-89
2022/09/24 06:35:35;;;;;;;4.42;3.85;;;;;;;12.37;66.82;100526.03;1734647;82;20124;-88
2022/09/24 06:38:03;;;;;;;5.28;4.78;;;;;;;12.31;67.11;100520.35;1734493;82;20930;-87
2022/09/24 06:40:31;;;;;;;4.80;4.30;;;;;;;12.25;67.57;100522.95;1734490;82;21332;-86
2022/09/24 06:42:58;;;;;;;3.70;3.30;;;;;;;12.22;67.86;100517.88;1735186;82;20947;-87
2022/09/24 06:45:25;;;;;;;3.37;3.08;;;;;;;12.17;68.06;100517.36;1735239;82;21014;-88
2022/09/24 06:48:00;;;;;;;2.98;2.52;;;;;;;12.11;68.25;100516.45;1734953;82;20951;-88
2022/09/24 06:50:28;;;;;;;6.65;3.83;;;;;;;12.05;68.63;100520.81;1734759;82;21026;-89
2022/09/24 06:52:55;;;;;;;3.33;3.02;;;;;;;12.00;68.91;100514.08;1734384;82;21155;-88
2022/09/24 06:55:22;;;;;;;5.35;3.30;;;;;;;12.01;69.11;100522.34;1734374;82;20899;-87
2022/09/24 06:57:49;;;;;;;4.37;3.98;;;;;;;12.00;69.11;100518.02;1735053;82;20974;-88
2022/09/24 07:00:16;;;;;;;8.20;3.52;;;;;;;12.00;69.19;100520.64;1734486;82;20908;-88
2022/09/24 07:02:45;;;;;;;9.88;3.67;;;;;;;11.97;69.17;100510.83;1734183;82;21386;-87
2022/09/24 07:05:12;;;;;;;6.95;6.25;;;;;;;11.95;69.23;100516.66;1682824;82;21154;-87
2022/09/24 07:07:40;;;;;;;11.65;7.45;;;;;;;11.93;69.31;100519.86;1733912;82;20908;-87
2022/09/24 07:10:09;;;;;;;12.95;11.53;;;;;;;11.90;69.51;100515.66;1734561;82;21491;-89
2022/09/24 07:12:36;;;;;;;9.35;8.33;;;;;;;11.90;69.81;100517.45;1734490;82;20912;-88
2022/09/24 07:15:05;;;;;;;5.78;4.78;;;;;;;11.92;70.15;100519.51;1734811;82;20912;-88
2022/09/24 07:17:32;;;;;;;5.83;3.92;;;;;;;11.97;70.20;100518.23;1734906;82;21286;-88
2022/09/24 07:19:59;;;;;;;4.92;4.30;;;;;;;12.05;69.98;100523.44;1734816;82;20971;-85
2022/09/24 07:22:26;;;;;;;4.78;3.72;;;;;;;12.09;69.85;100515.72;1732620;83;20978;-86
2022/09/24 07:24:54;;;;;;;5.83;5.17;;;;;;;12.08;69.87;100514.88;1751825;81;20904;-85
2022/09/24 07:27:21;;;;;;;5.28;4.22;;;;;;;12.12;69.90;100516.84;1751836;82;20943;-86
2022/09/24 07:29:49;;;;;;;5.62;5.03;;;;;;;12.12;69.88;100524.25;1751776;82;21289;-87
2022/09/24 07:32:16;;;;;;;6.17;5.03;;;;;;;12.14;69.90;100518.87;1751357;82;20892;-88
2022/09/24 07:34:42;;;;;;;10.53;7.10;;;;;;;12.13;69.89;100525.92;1751446;82;20996;-88
2022/09/24 07:37:12;;;;;;;6.42;5.35;;;;;;;12.14;69.93;100516.23;1751329;82;20919;-88
2022/09/24 07:39:39;;;;;;;6.47;5.12;;;;;;;12.11;70.04;100513.34;1751523;82;20931;-88
2022/09/24 07:42:06;;;;;;;6.78;5.83;;;;;;;12.09;70.24;100520.98;1751446;82;21238;-88
2022/09/24 07:44:35;;;;;;;7.17;6.28;;;;;;;12.08;70.37;100522.77;1751317;82;20895;-88
2022/09/24 07:47:02;;;;;;;6.50;5.90;;;;;;;12.07;70.49;100517.61;1751544;82;20947;-88
2022/09/24 07:49:31;;;;;;;6.12;5.62;;;;;;;12.11;70.69;100513.83;1751241;82;21476;-87
2022/09/24 07:51:59;;;;;;;7.70;5.80;;;;;;;12.18;70.62;100515.95;1751318;82;20927;-88
2022/09/24 07:54:25;;;;;;;11.35;10.30;;;;;;;12.24;70.55;100513.36;1751657;82;21123;-86
2022/09/24 07:56:52;;;;;;;10.80;9.60;;;;;;;12.30;70.43;100510.80;1751183;82;20955;-88
2022/09/24 07:59:20;;;;;;;11.85;10.20;;;;;;;12.37;70.22;100516.83;1751446;82;20931;-86
2022/09/24 08:01:47;;;;;;;18.23;15.23;;;;;;;12.44;70.13;100514.13;1751333;82;20947;-88
2022/09/24 08:04:13;;;;;;;23.10;16.70;;;;;;;12.53;69.95;100513.13;1751270;82;20880;-86
2022/09/24 08:06:41;;;;;;;21.48;14.80;;;;;;;12.65;69.79;100509.17;1751500;82;21223;-89
2022/09/24 08:09:08;;;;;;;14.65;12.23;;;;;;;12.82;69.57;100513.22;1751287;82;21010;-86
2022/09/24 08:11:35;;;;;;;12.68;10.65;;;;;;;13.00;69.29;100507.11;1751342;82;20891;-88
2022/09/24 08:14:04;;;;;;;11.00;9.63;;;;;;;13.17;68.83;100501.95;1751573;82;20907;-88
2022/09/24 08:16:31;;;;;;;10.43;8.38;;;;;;;13.31;68.35;100504.09;1751666;82;20942;-89
2022/09/24 08:18:59;;;;;;;8.70;7.83;;;;;;;13.43;67.94;100502.72;1752169;80;21289;-88
2022/09/24 08:21:27;;;;;;;10.08;7.80;;;;;;;13.58;67.50;100508.63;1738095;82;20970;-88
2022/09/24 08:23:55;;;;;;;7.45;6.72;;;;;;;13.70;67.14;100510.01;1738397;82;20939;-88
2022/09/24 08:26:22;;;;;;;9.30;7.28;;;;;;;13.78;66.56;100505.81;1792812;80;20930;-89
2022/09/24 08:28:49;;;;;;;8.08;7.28;;;;;;;13.88;66.26;100504.66;1791916;80;20915;-88
2022/09/24 08:31:16;;;;;;;8.58;7.42;;;;;;;13.97;66.06;100507.08;1791583;80;21091;-87
2022/09/24 08:33:45;;;;;;;7.15;6.45;;;;;;;14.04;65.63;100504.33;1791441;80;20875;-87
2022/09/24 08:36:11;;;;;;;9.80;7.05;;;;;;;14.08;65.40;100507.94;1792310;80;20934;-87
2022/09/24 08:38:39;;;;;;;6.95;5.92;;;;;;;14.13;65.30;100508.06;1793152;80;20937;-88
2022/09/24 08:41:14;;;;;;;8.53;7.25;;;;;;;14.17;65.09;100508.20;1794701;80;20824;-86
2022/09/24 08:44:05;;;;;;;8.50;6.50;;;;;;;14.18;64.81;100502.78;1794620;80;21108;-87
2022/09/24 08:49:39;;;;;;;6.62;6.03;;;;;;;14.18;64.49;100509.38;1794613;80;20914;-89
2022/09/24 08:52:37;;;;;;;11.48;7.33;;;;;;;14.18;64.63;100497.99;1792813;80;20899;-90
2022/09/24 08:55:26;;;;;;;6.60;6.05;;;;;;;14.24;64.72;100497.52;1791507;80;20836;-87
2022/09/24 08:58:19;;;;;;;6.80;6.17;;;;;;;14.38;64.52;100493.33;1787364;79;21246;-89
2022/09/24 09:00:57;;;;;;;8.10;7.20;;;;;;;15.04;63.01;100481.52;1791444;80;20902;-89
2022/09/24 09:03:29;;;;;;;10.05;8.70;;;;;;;15.04;63.01;100481.52;1791755;80;20871;-88
2022/09/24 09:06:04;;;;;;;7.95;7.25;;;;;;;15.45;62.25;100486.56;1791529;80;20931;-89
2022/09/24 09:09:00;;;;;;;6.75;5.12;;;;;;;15.83;60.77;100489.62;1791583;80;20958;-88
2022/09/24 09:11:30;;;;;;;6.90;6.12;;;;;;;16.18;59.85;100485.80;1791205;78;21139;-89
2022/09/24 09:14:01;;;;;;;6.37;5.78;;;;;;;16.58;58.80;100481.39;1791400;80;21371;-90
2022/09/24 09:16:50;;;;;;;126.62;112.90;;;;;;;16.97;57.64;100478.85;1791482;80;20891;-93
2022/09/24 09:19:17;;;;;;;16.15;13.38;;;;;;;17.29;56.07;100476.92;1790895;79;20931;-89
2022/09/24 09:21:56;;;;;;;13.25;8.48;;;;;;;17.58;55.56;100474.27;1783439;80;20935;-93
2022/09/24 09:24:39;;;;;;;11.70;10.55;;;;;;;17.96;54.27;100472.55;1783631;80;21244;-89
2022/09/24 09:27:15;;;;;;;8.55;7.53;;;;;;;18.33;53.40;100468.59;1773169;79;20916;-90
2022/09/24 09:29:50;;;;;;;6.78;5.30;;;;;;;18.59;51.71;100460.80;1731378;83;20926;-92
2022/09/24 09:32:41;;;;;;;7.00;6.37;;;;;;;18.76;51.45;100467.11;1730808;83;20902;-91
2022/09/24 09:35:34;;;;;;;12.33;11.12;;;;;;;18.95;51.15;100464.88;1730992;83;20898;-88
2022/09/24 09:38:24;;;;;;;13.90;9.85;;;;;;;19.08;50.39;100463.69;1730851;83;21184;-91
2022/09/24 09:41:08;;;;;;;7.22;6.53;;;;;;;19.05;50.01;100467.45;1730621;83;21457;-92
2022/09/24 09:43:37;;;;;;;7.25;6.65;;;;;;;18.97;49.67;100464.23;1730758;83;21016;-92
2022/09/24 09:46:12;;;;;;;6.17;5.35;;;;;;;18.98;49.61;100459.75;1730596;83;21371;-90
2022/09/24 09:48:57;;;;;;;5.95;5.45;;;;;;;19.07;49.55;100460.66;1730732;83;21479;-91
2022/09/24 09:51:26;;;;;;;5.12;4.72;;;;;;;19.12;48.77;100454.39;1729571;83;21282;-89
2022/09/24 09:53:58;;;;;;;5.70;5.20;;;;;;;19.08;48.70;100461.02;1730682;83;21371;-89
2022/09/24 09:56:39;;;;;;;5.22;4.75;;;;;;;18.94;48.48;100474.31;1730905;83;20929;-91
2022/09/24 09:59:20;;;;;;;7.97;2.30;;;;;;;18.67;48.78;100483.12;1730661;83;20910;-88
2022/09/24 10:01:54;;;;;;;4.10;1.52;;;;;;;18.29;48.09;100491.60;1730699;83;20914;-90
2022/09/24 10:04:39;;;;;;;4.22;1.65;;;;;;;17.64;50.15;100490.95;1730499;83;21194;-89
2022/09/24 10:07:14;;;;;;;2.15;1.32;;;;;;;17.03;51.61;100493.84;1731587;83;21199;-91
2022/09/24 10:09:42;;;;;;;9.03;7.05;;;;;;;16.40;53.60;100485.61;1733645;81;21052;-91
2022/09/24 10:12:21;;;;;;;2.65;1.80;;;;;;;15.90;55.24;100484.19;1732426;83;20886;-92
2022/09/24 10:15:03;;;;;;;4.17;2.25;;;;;;;15.44;56.41;100480.90;1724460;82;20993;-91
2022/09/24 10:17:37;;;;;;;2.02;1.52;;;;;;;15.07;57.16;100469.41;1707245;82;20985;-91
2022/09/24 10:20:18;;;;;;;4.17;3.05;;;;;;;14.81;57.64;100464.91;1728208;81;20943;-92
2022/09/24 10:22:52;;;;;;;2.52;1.67;;;;;;;14.67;58.29;100467.80;1708633;84;21468;-91
2022/09/24 10:25:26;;;;;;;2.37;1.90;;;;;;;14.63;60.15;100465.90;1707989;84;21542;-93
2022/09/24 10:31:04;;;;;;;1.98;1.87;;;;;;;14.79;62.44;100466.83;1707928;84;21840;-90
2022/09/24 10:33:40;;;;;;;4.92;2.12;;;;;;;14.79;62.44;100466.83;1707462;84;20934;-91
2022/09/24 10:36:31;;;;;;;2.10;1.90;;;;;;;14.88;62.95;100469.21;1708071;82;20911;-92
2022/09/24 10:39:11;;;;;;;2.10;1.90;;;;;;;14.89;63.64;100457.67;1658201;85;20956;-92
2022/09/24 10:41:51;;;;;;;2.52;2.35;;;;;;;14.89;63.64;100457.67;1659413;86;21004;-89
2022/09/24 10:44:22;;;;;;;2.47;2.27;;;;;;;14.82;64.42;100448.09;1659528;86;22073;-87
2022/09/24 10:46:56;;;;;;;2.25;2.05;;;;;;;14.92;66.04;100459.59;1658012;86;21476;-90
2022/09/24 10:49:37;;;;;;;2.02;1.92;;;;;;;15.12;66.31;100458.46;1659283;85;20912;-90
2022/09/24 10:52:29;;;;;;;3.15;2.85;;;;;;;15.12;66.31;100458.46;1657859;86;20956;-89
2022/09/24 10:55:24;;;;;;;4.20;3.80;;;;;;;15.36;65.86;100470.11;1658290;86;20920;-90
2022/09/24 10:58:11;;;;;;;5.28;4.60;;;;;;;15.47;64.77;100479.80;1657832;86;21161;-89
2022/09/24 11:00:47;;;;;;;4.70;3.83;;;;;;;15.50;64.70;100506.00;1658011;86;20952;-90
2022/09/24 11:03:29;;;;;;;9.40;5.03;;;;;;;15.10;62.91;100532.53;1658151;86;20984;-90
2022/09/24 11:06:03;;;;;;;5.90;4.53;;;;;;;15.10;62.91;100532.53;1658339;86;20924;-91
2022/09/24 11:08:45;;;;;;;5.03;4.08;;;;;;;14.74;61.65;100527.53;1658805;86;20940;-90
2022/09/24 11:11:43;;;;;;;6.53;3.65;;;;;;;14.41;62.32;100522.13;1658784;85;21129;-91
2022/09/24 11:14:49;;;;;;;4.92;3.77;;;;;;;14.15;62.92;100525.45;1659273;83;20944;-92
2022/09/24 11:17:53;;;;;;;6.80;4.55;;;;;;;13.82;63.74;100522.25;1699914;84;21042;-92
2022/09/24 11:20:28;;;;;;;6.08;3.75;;;;;;;13.47;64.84;100516.48;1708286;82;21564;-91
2022/09/24 11:23:37;;;;;;;5.37;3.98;;;;;;;13.16;66.39;100517.41;1707890;84;21384;-90
2022/09/24 11:26:34;;;;;;;5.85;4.95;;;;;;;12.94;67.87;100520.74;1708089;84;21548;-90
2022/09/24 11:29:06;;;;;;;8.18;5.58;;;;;;;12.76;68.97;100518.08;1707914;84;20954;-92
2022/09/24 11:31:50;;;;;;;7.95;5.10;;;;;;;12.63;69.83;100525.54;1708214;84;20902;-91
2022/09/24 11:35:13;;;;;;;5.10;4.60;;;;;;;12.60;70.04;100520.47;1710955;82;20907;-92
2022/09/24 11:38:07;;;;;;;4.42;4.00;;;;;;;12.64;70.94;100514.53;1646831;84;21033;-91
2022/09/24 11:40:50;;;;;;;4.75;4.17;;;;;;;12.77;71.34;100509.25;1645446;87;21313;-90
2022/09/24 11:43:35;;;;;;;5.55;4.30;;;;;;;12.90;71.47;100505.28;1645328;87;21044;-93
2022/09/24 11:46:43;;;;;;;3.50;3.20;;;;;;;13.04;71.92;100509.06;1641526;87;21411;-92
2022/09/24 11:49:25;;;;;;;7.58;3.00;;;;;;;13.23;71.93;100497.57;1644979;87;20981;-92
2022/09/24 11:52:29;;;;;;;3.33;3.12;;;;;;;13.43;71.63;100498.77;1645150;86;21505;-91
2022/09/24 11:55:22;;;;;;;6.95;3.75;;;;;;;13.64;70.88;100498.95;1623202;87;21175;-89
2022/09/24 11:58:22;;;;;;;5.25;4.10;;;;;;;13.86;70.55;100495.55;1645655;87;21041;-93
2022/09/24 12:01:12;;;;;;;3.90;3.60;;;;;;;14.09;70.30;100499.53;1645069;87;21683;-92
2022/09/24 12:04:01;;;;;;;3.22;2.92;;;;;;;14.31;69.72;100492.96;1644972;87;20961;-91
2022/09/24 12:09:53;;;;;;;2.72;2.50;;;;;;;14.72;69.56;100489.41;1784944;80;25055;-90
2022/09/24 12:12:28;;;;;;;6.22;5.62;;;;;;;14.76;69.07;100485.53;1734076;81;21073;-93
2022/09/24 12:15:07;;;;;;;5.28;4.85;;;;;;;14.78;68.53;100488.89;1729064;81;21157;-91